createdAt,value
2022-12-29T00:01:48.328Z,79.50
2022-12-29T00:04:16.841Z,79.70
2022-12-29T00:06:45.325Z,79.20
2022-12-29T00:09:13.838Z,78.30
2022-12-29T00:11:43.103Z,78.60
2022-12-29T00:14:28.795Z,78.50
2022-12-29T00:16:56.926Z,78.20
2022-12-29T00:19:42.988Z,78.20
2022-12-29T00:22:29.226Z,78.10
2022-12-29T00:25:11.090Z,77.90
2022-12-29T00:28:01.578Z,77.50
2022-12-29T00:30:50.540Z,77.20
2022-12-29T00:33:37.392Z,76.90
2022-12-29T00:36:08.190Z,77.30
2022-12-29T00:38:57.225Z,77.60
2022-12-29T00:41:42.466Z,77.90
2022-12-29T00:44:14.913Z,77.90
2022-12-29T00:46:44.182Z,78.20
2022-12-29T00:49:32.482Z,78.50
2022-12-29T00:52:02.833Z,78.70
2022-12-29T00:54:32.087Z,79.30
2022-12-29T00:57:00.021Z,79.10
2022-12-29T00:59:29.233Z,79.20
2022-12-29T01:01:57.585Z,79.20
2022-12-29T01:04:27.139Z,79.60
2022-12-29T01:06:55.244Z,79.40
2022-12-29T01:09:41.247Z,78.90
2022-12-29T01:12:09.988Z,79.10
2022-12-29T01:14:40.445Z,79.10
2022-12-29T01:17:08.646Z,79.60
2022-12-29T01:19:36.587Z,79.70
2022-12-29T01:22:04.498Z,79.80
2022-12-29T01:24:32.288Z,79.60
2022-12-29T01:27:00.119Z,79.30
2022-12-29T01:29:27.987Z,79.00
2022-12-29T01:31:57.156Z,78.80
2022-12-29T01:34:25.077Z,78.40
2022-12-29T01:36:52.843Z,78.90
2022-12-29T01:39:20.766Z,78.90
2022-12-29T01:41:48.545Z,78.80
2022-12-29T01:44:49.309Z,78.60
2022-12-29T01:47:24.673Z,78.70
2022-12-29T01:49:54.761Z,78.50
2022-12-29T01:52:24.441Z,78.20
2022-12-29T01:54:55.853Z,78.40
2022-12-29T01:57:27.321Z,78.30
2022-12-29T01:59:58.736Z,78.10
2022-12-29T02:02:32.420Z,78.60
2022-12-29T02:05:04.821Z,78.50
2022-12-29T02:07:33.702Z,78.10
2022-12-29T02:10:03.762Z,77.80
2022-12-29T02:12:31.626Z,78.10
2022-12-29T02:15:03.743Z,78.50
2022-12-29T02:17:49.154Z,78.40
2022-12-29T02:21:00.314Z,79.00
2022-12-29T02:23:55.509Z,79.20
2022-12-29T02:26:38.111Z,79.60
2022-12-29T02:29:33.019Z,80.20
2022-12-29T02:32:05.791Z,80.50
2022-12-29T02:34:46.824Z,80.40
2022-12-29T02:37:21.744Z,80.70
2022-12-29T02:39:55.349Z,80.90
2022-12-29T02:42:31.171Z,80.80
2022-12-29T02:45:04.075Z,80.50
2022-12-29T02:47:39.300Z,80.50
2022-12-29T02:50:11.201Z,80.90
2022-12-29T02:52:45.786Z,80.70
2022-12-29T02:55:12.983Z,80.50
2022-12-29T02:57:40.831Z,79.40
2022-12-29T03:00:12.610Z,79.80
2022-12-29T03:02:59.962Z,80.00
2022-12-29T03:05:47.777Z,79.70
2022-12-29T03:08:25.250Z,79.80
2022-12-29T03:11:00.953Z,79.20
2022-12-29T03:13:51.864Z,78.70
2022-12-29T03:16:25.070Z,78.70
2022-12-29T03:19:03.215Z,78.10
2022-12-29T03:21:54.103Z,78.20
2022-12-29T03:24:25.147Z,78.50
2022-12-29T03:26:56.935Z,78.40
2022-12-29T03:29:25.720Z,78.70
2022-12-29T03:31:55.453Z,78.50
2022-12-29T03:34:26.716Z,78.40
2022-12-29T03:36:57.811Z,77.70
2022-12-29T03:39:27.183Z,77.60
2022-12-29T03:42:00.571Z,78.00
2022-12-29T03:44:34.954Z,77.60
2022-12-29T03:47:03.084Z,77.80
2022-12-29T03:49:32.217Z,77.30
2022-12-29T03:52:00.101Z,76.90
2022-12-29T03:54:27.967Z,76.90
2022-12-29T03:56:55.837Z,76.50
2022-12-29T03:59:23.801Z,75.10
2022-12-29T04:01:51.972Z,76.50
2022-12-29T04:04:19.897Z,76.70
2022-12-29T04:06:49.112Z,75.60
2022-12-29T04:09:16.971Z,75.20
2022-12-29T04:11:45.446Z,75.10
2022-12-29T04:14:13.298Z,75.40
2022-12-29T04:16:42.503Z,75.10
2022-12-29T04:19:10.379Z,74.80
2022-12-29T04:21:37.261Z,75.50
2022-12-29T04:24:08.037Z,75.80
2022-12-29T04:26:35.909Z,75.90
2022-12-29T04:29:03.748Z,75.80
2022-12-29T04:31:31.592Z,76.30
2022-12-29T04:34:00.864Z,76.80
2022-12-29T04:36:30.242Z,77.50
2022-12-29T04:38:58.335Z,78.20
2022-12-29T04:41:27.760Z,79.20
2022-12-29T04:43:55.585Z,79.20
2022-12-29T04:46:23.479Z,78.70
2022-12-29T04:48:51.389Z,78.30
2022-12-29T04:51:19.325Z,78.10
2022-12-29T04:53:47.244Z,78.20
2022-12-29T04:56:15.128Z,77.70
2022-12-29T04:58:44.266Z,77.60
2022-12-29T05:01:12.095Z,77.20
2022-12-29T05:03:39.972Z,77.60
2022-12-29T05:06:09.051Z,77.60
2022-12-29T05:08:36.867Z,77.80
2022-12-29T05:11:04.793Z,77.80
2022-12-29T05:13:32.615Z,78.30
2022-12-29T05:16:02.778Z,78.10
2022-12-29T05:18:30.695Z,78.00
2022-12-29T05:20:58.535Z,77.60
2022-12-29T05:23:26.387Z,78.20
2022-12-29T05:25:54.246Z,78.50
2022-12-29T05:28:22.077Z,77.80
2022-12-29T05:30:51.154Z,77.90
2022-12-29T05:33:21.228Z,77.70
2022-12-29T05:35:49.204Z,77.30
2022-12-29T05:38:17.133Z,76.50
2022-12-29T05:40:46.357Z,77.30
2022-12-29T05:43:14.175Z,77.50
2022-12-29T05:45:42.429Z,77.00
2022-12-29T05:48:10.252Z,77.80
2022-12-29T05:50:39.361Z,77.80
2022-12-29T05:53:07.208Z,78.70
2022-12-29T05:55:36.219Z,78.60
2022-12-29T05:58:04.088Z,78.20
2022-12-29T06:00:31.934Z,78.60
2022-12-29T06:03:00.006Z,78.20
2022-12-29T06:05:28.070Z,79.00
2022-12-29T06:07:57.412Z,78.80
2022-12-29T06:10:25.336Z,78.20
2022-12-29T06:12:53.220Z,77.70
2022-12-29T06:15:21.070Z,77.10
2022-12-29T06:17:48.996Z,77.80
2022-12-29T06:20:17.074Z,77.50
2022-12-29T06:22:45.120Z,77.20
2022-12-29T06:25:14.361Z,76.80
2022-12-29T06:27:42.222Z,75.90
2022-12-29T06:30:11.606Z,75.90
2022-12-29T06:32:39.659Z,75.40
2022-12-29T06:35:08.460Z,74.80
2022-12-29T06:37:36.731Z,75.50
2022-12-29T06:40:04.856Z,75.00
2022-12-29T06:42:34.039Z,74.60
2022-12-29T06:45:01.941Z,74.50
2022-12-29T06:47:29.854Z,74.00
2022-12-29T06:49:57.626Z,74.40
2022-12-29T06:52:25.664Z,74.40
2022-12-29T06:54:53.473Z,74.50
2022-12-29T06:57:21.324Z,74.50
2022-12-29T06:59:50.545Z,74.80
2022-12-29T07:02:19.281Z,74.50
2022-12-29T07:04:47.425Z,74.60
2022-12-29T07:07:15.432Z,74.30
2022-12-29T07:09:43.216Z,74.20
2022-12-29T07:12:11.067Z,74.30
2022-12-29T07:14:42.985Z,74.40
2022-12-29T07:17:12.817Z,74.30
2022-12-29T07:19:40.721Z,74.20
2022-12-29T07:22:08.617Z,74.20
2022-12-29T07:24:36.408Z,73.90
2022-12-29T07:27:04.324Z,74.20
2022-12-29T07:29:32.163Z,74.20
2022-12-29T07:32:00.041Z,74.80
2022-12-29T07:34:29.341Z,74.10
2022-12-29T07:36:57.227Z,74.20
2022-12-29T07:39:25.008Z,74.10
2022-12-29T07:41:52.837Z,73.80
2022-12-29T07:44:20.614Z,73.90
2022-12-29T07:46:56.377Z,73.40
2022-12-29T07:49:25.383Z,73.40
2022-12-29T07:51:54.649Z,73.40
2022-12-29T07:54:23.579Z,73.30
2022-12-29T07:56:52.126Z,73.60
2022-12-29T07:59:20.206Z,72.80
2022-12-29T08:01:48.273Z,73.10
2022-12-29T08:04:16.343Z,73.00
2022-12-29T08:06:44.223Z,72.90
2022-12-29T08:09:19.615Z,72.70
2022-12-29T08:11:49.992Z,73.50
2022-12-29T08:14:17.923Z,74.20
2022-12-29T08:16:45.731Z,74.40
2022-12-29T08:19:13.932Z,74.40
2022-12-29T08:21:42.289Z,74.30
2022-12-29T08:24:11.044Z,74.80
2022-12-29T08:26:40.181Z,74.90
2022-12-29T08:29:08.008Z,75.30
2022-12-29T08:31:36.987Z,75.40
2022-12-29T08:34:05.196Z,75.80
2022-12-29T08:36:33.238Z,76.10
2022-12-29T08:39:01.333Z,76.70
2022-12-29T08:41:29.204Z,76.50
2022-12-29T08:43:58.417Z,77.80
2022-12-29T08:46:26.321Z,77.70
2022-12-29T08:48:54.731Z,78.00
2022-12-29T08:51:24.712Z,78.20
2022-12-29T08:53:53.315Z,78.40
2022-12-29T08:56:21.207Z,78.60
2022-12-29T08:58:49.077Z,78.90
2022-12-29T09:01:18.525Z,79.80
2022-12-29T09:04:13.430Z,79.70
2022-12-29T09:06:39.919Z,78.70
2022-12-29T09:09:08.499Z,79.30
2022-12-29T09:11:36.388Z,79.40
2022-12-29T09:14:04.271Z,79.00
2022-12-29T09:16:33.604Z,78.90
2022-12-29T09:19:01.829Z,79.60
2022-12-29T09:21:29.772Z,79.60
2022-12-29T09:23:57.719Z,79.70
2022-12-29T09:26:25.577Z,79.40
2022-12-29T09:28:53.398Z,79.10
2022-12-29T09:31:21.325Z,79.80
2022-12-29T09:33:50.531Z,80.20
2022-12-29T09:36:18.316Z,80.20
2022-12-29T09:38:46.167Z,80.20
2022-12-29T09:41:20.433Z,79.80
2022-12-29T09:44:05.258Z,79.50
2022-12-29T09:46:36.907Z,79.20
2022-12-29T09:49:19.518Z,78.80
2022-12-29T09:51:51.412Z,79.70
2022-12-29T09:54:27.924Z,78.30
2022-12-29T09:56:57.261Z,78.70
2022-12-29T09:59:28.797Z,78.50
2022-12-29T10:02:04.424Z,78.70
2022-12-29T10:04:33.748Z,78.50
2022-12-29T10:10:05.047Z,77.40
2022-12-29T10:12:48.557Z,77.20
2022-12-29T10:15:28.484Z,76.80
2022-12-29T10:18:04.000Z,76.40
2022-12-29T10:20:40.156Z,76.20
2022-12-29T10:23:21.783Z,76.00
2022-12-29T10:25:50.513Z,75.40
2022-12-29T10:28:23.161Z,75.30
2022-12-29T10:30:53.768Z,75.20
2022-12-29T10:33:25.191Z,75.40
2022-12-29T10:35:54.618Z,74.40
2022-12-29T10:38:29.021Z,74.60
2022-12-29T10:41:01.589Z,74.30
2022-12-29T10:43:31.632Z,73.60
2022-12-29T10:46:04.405Z,73.20
2022-12-29T10:48:34.636Z,73.10
2022-12-29T10:51:06.586Z,72.70
2022-12-29T10:53:40.871Z,72.30
2022-12-29T10:56:29.699Z,72.20
2022-12-29T10:59:01.843Z,72.60
2022-12-29T11:01:38.720Z,72.30
2022-12-29T11:04:15.106Z,72.50
2022-12-29T11:06:45.499Z,72.90
2022-12-29T11:09:18.245Z,72.20
2022-12-29T11:11:46.441Z,72.40
2022-12-29T11:14:16.565Z,71.40
2022-12-29T11:16:46.061Z,71.10
2022-12-29T11:19:24.901Z,71.40
2022-12-29T11:21:54.485Z,70.50
2022-12-29T11:24:24.784Z,71.20
2022-12-29T11:26:58.176Z,71.00
2022-12-29T11:29:27.885Z,71.00
2022-12-29T11:31:58.991Z,71.20
2022-12-29T11:34:32.458Z,71.40
2022-12-29T11:37:05.234Z,71.00
2022-12-29T11:39:37.967Z,70.50
2022-12-29T11:42:10.487Z,70.60
2022-12-29T11:44:43.603Z,70.10
2022-12-29T11:47:21.626Z,70.40
2022-12-29T11:49:52.664Z,70.20
2022-12-29T11:52:25.655Z,69.40
2022-12-29T11:54:55.339Z,69.80
2022-12-29T11:57:25.426Z,70.10
2022-12-29T11:59:56.109Z,70.30
2022-12-29T12:02:42.981Z,70.70
2022-12-29T12:05:21.406Z,71.40
2022-12-29T12:07:54.599Z,71.90
2022-12-29T12:10:26.862Z,72.20
2022-12-29T12:13:03.898Z,72.00
2022-12-29T12:15:43.444Z,71.70
2022-12-29T12:18:20.629Z,71.80
2022-12-29T12:20:52.027Z,71.60
2022-12-29T12:23:35.204Z,71.20
2022-12-29T12:26:11.232Z,71.20
2022-12-29T12:28:46.730Z,71.40
2022-12-29T12:31:25.065Z,70.60
2022-12-29T12:33:59.609Z,70.50
2022-12-29T12:36:56.070Z,69.90
2022-12-29T12:39:28.900Z,69.90
2022-12-29T12:42:15.475Z,70.10
2022-12-29T12:44:53.205Z,70.00
2022-12-29T12:47:41.999Z,70.60
2022-12-29T12:50:29.730Z,70.70
2022-12-29T12:53:22.385Z,70.90
2022-12-29T12:56:23.512Z,71.10
2022-12-29T12:58:57.669Z,71.50
2022-12-29T13:01:37.643Z,72.00
2022-12-29T13:04:25.401Z,70.80
2022-12-29T13:07:01.285Z,70.50
2022-12-29T13:09:45.399Z,70.90
2022-12-29T13:12:29.831Z,70.70
2022-12-29T13:15:11.041Z,70.20
2022-12-29T13:17:45.201Z,70.50
2022-12-29T13:20:24.843Z,70.80
2022-12-29T13:23:00.120Z,70.80
2022-12-29T13:25:35.654Z,71.10
2022-12-29T13:28:12.783Z,71.40
2022-12-29T13:30:46.655Z,71.10
2022-12-29T13:33:24.126Z,71.00
2022-12-29T13:36:01.461Z,71.00
2022-12-29T13:38:35.502Z,71.10
2022-12-29T13:41:08.544Z,71.10
2022-12-29T13:43:41.513Z,71.50
2022-12-29T13:46:14.641Z,71.60
2022-12-29T13:48:48.282Z,71.80
2022-12-29T13:51:21.375Z,73.00
2022-12-29T13:54:15.563Z,73.80
2022-12-29T13:56:51.306Z,74.70
2022-12-29T13:59:26.492Z,74.30
2022-12-29T14:02:01.842Z,74.10
2022-12-29T14:04:34.114Z,74.20
2022-12-29T14:07:04.921Z,74.30
2022-12-29T14:09:48.931Z,74.50
2022-12-29T14:12:30.200Z,74.40
2022-12-29T14:15:08.510Z,74.40
2022-12-29T14:17:36.515Z,74.80
2022-12-29T14:20:05.822Z,74.80
2022-12-29T14:22:33.717Z,74.50
2022-12-29T14:25:02.195Z,74.70
2022-12-29T14:27:53.089Z,74.70
2022-12-29T14:30:51.471Z,74.40
2022-12-29T14:33:19.929Z,74.10
2022-12-29T14:35:53.098Z,74.10
2022-12-29T14:38:24.482Z,74.10
2022-12-29T14:40:53.012Z,74.50
2022-12-29T14:43:26.081Z,75.00
2022-12-29T14:46:02.398Z,74.20
2022-12-29T14:48:37.792Z,74.10
2022-12-29T14:51:26.707Z,73.90
2022-12-29T14:53:54.467Z,73.70
2022-12-29T14:56:27.967Z,73.80
2022-12-29T14:58:57.260Z,73.90
2022-12-29T15:01:37.047Z,73.80
2022-12-29T15:04:15.761Z,74.00
2022-12-29T15:06:45.901Z,73.80
2022-12-29T15:09:22.621Z,73.70
2022-12-29T15:11:53.571Z,74.00
2022-12-29T15:14:33.185Z,73.90
2022-12-29T15:17:11.528Z,73.70
2022-12-29T15:19:39.537Z,73.50
2022-12-29T15:22:08.208Z,73.70
2022-12-29T15:24:42.497Z,73.40
2022-12-29T15:27:16.077Z,73.20
2022-12-29T15:29:46.166Z,73.00
2022-12-29T15:32:25.283Z,72.90
2022-12-29T15:34:55.183Z,72.60
2022-12-29T15:37:25.511Z,72.50
2022-12-29T15:39:56.640Z,72.80
2022-12-29T15:42:49.970Z,72.70
2022-12-29T15:45:18.163Z,72.80
2022-12-29T15:47:50.322Z,72.80
2022-12-29T15:50:24.680Z,73.00
2022-12-29T15:52:53.154Z,72.90
2022-12-29T15:55:33.528Z,72.90
2022-12-29T15:58:03.440Z,72.90
2022-12-29T16:00:33.006Z,73.40
2022-12-29T16:03:04.303Z,72.80
2022-12-29T16:05:37.349Z,72.60
2022-12-29T16:08:22.445Z,72.30
2022-12-29T16:10:51.310Z,72.60
2022-12-29T16:13:26.680Z,72.50
2022-12-29T16:16:01.597Z,72.40
2022-12-29T16:18:35.113Z,72.40
2022-12-29T16:21:04.049Z,72.10
2022-12-29T16:23:33.411Z,72.30
2022-12-29T16:26:01.733Z,72.50
2022-12-29T16:28:37.864Z,72.60
2022-12-29T16:31:07.362Z,72.50
2022-12-29T16:33:41.234Z,72.50
2022-12-29T16:36:30.129Z,72.70
2022-12-29T16:39:27.391Z,72.50
2022-12-29T16:41:55.911Z,72.70
2022-12-29T16:44:25.669Z,72.50
2022-12-29T16:47:08.141Z,72.80
2022-12-29T16:49:39.285Z,72.60
2022-12-29T16:52:15.769Z,72.60
2022-12-29T16:54:44.299Z,72.30
2022-12-29T16:57:12.937Z,72.40
2022-12-29T16:59:43.493Z,72.30
2022-12-29T17:02:17.242Z,72.40
2022-12-29T17:04:49.433Z,72.40
2022-12-29T17:07:19.750Z,72.50
2022-12-29T17:09:47.709Z,72.60
2022-12-29T17:12:19.163Z,72.80
2022-12-29T17:14:48.840Z,72.80
2022-12-29T17:17:20.300Z,72.60
2022-12-29T17:19:52.706Z,72.60
2022-12-29T17:22:26.512Z,72.40
2022-12-29T17:24:55.137Z,72.30
2022-12-29T17:27:27.119Z,72.00
2022-12-29T17:29:58.124Z,72.00
2022-12-29T17:32:26.604Z,71.90
2022-12-29T17:34:55.822Z,72.10
2022-12-29T17:37:36.011Z,71.70
2022-12-29T17:40:06.550Z,71.50
2022-12-29T17:42:36.834Z,71.70
2022-12-29T17:45:05.178Z,72.00
2022-12-29T17:47:32.981Z,72.00
2022-12-29T17:50:02.521Z,71.80
2022-12-29T17:52:30.376Z,71.90
2022-12-29T17:54:58.215Z,72.20
2022-12-29T17:57:26.013Z,72.10
2022-12-29T17:59:53.797Z,72.00
2022-12-29T18:02:30.475Z,71.90
2022-12-29T18:05:00.161Z,71.70
2022-12-29T18:07:35.672Z,71.60
2022-12-29T18:10:04.799Z,71.60
2022-12-29T18:12:38.627Z,71.70
2022-12-29T18:15:08.414Z,71.90
2022-12-29T18:17:36.264Z,72.10
2022-12-29T18:20:04.257Z,71.90
2022-12-29T18:22:33.420Z,72.10
2022-12-29T18:25:02.044Z,72.00
2022-12-29T18:27:30.138Z,72.10
2022-12-29T18:29:57.966Z,72.00
2022-12-29T18:32:25.821Z,72.10
2022-12-29T18:34:53.670Z,72.00
2022-12-29T18:37:21.522Z,71.80
2022-12-29T18:39:51.228Z,72.00
2022-12-29T18:42:19.381Z,71.50
2022-12-29T18:44:47.346Z,71.80
2022-12-29T18:47:15.349Z,71.60
2022-12-29T18:49:43.252Z,71.90
2022-12-29T18:52:14.792Z,71.60
2022-12-29T18:54:42.663Z,71.70
2022-12-29T18:57:11.889Z,71.80
2022-12-29T18:59:41.052Z,72.00
2022-12-29T19:02:17.569Z,72.00
2022-12-29T19:04:47.844Z,72.00
2022-12-29T19:07:19.233Z,72.00
2022-12-29T19:09:47.066Z,71.90
2022-12-29T19:12:17.233Z,72.10
2022-12-29T19:14:45.389Z,71.90
2022-12-29T19:17:13.836Z,72.00
2022-12-29T19:19:42.691Z,72.10
2022-12-29T19:22:10.792Z,71.80
2022-12-29T19:24:38.548Z,72.00
2022-12-29T19:27:06.378Z,71.80
2022-12-29T19:29:35.729Z,71.60
2022-12-29T19:32:03.538Z,71.90
2022-12-29T19:34:31.467Z,71.90
2022-12-29T19:36:59.308Z,72.00
2022-12-29T19:39:28.650Z,72.00
2022-12-29T19:42:01.956Z,72.00
2022-12-29T19:44:33.063Z,71.90
2022-12-29T19:47:02.354Z,71.80
2022-12-29T19:49:30.765Z,71.90
2022-12-29T19:51:58.732Z,72.00
2022-12-29T19:54:26.576Z,71.90
2022-12-29T19:56:54.417Z,72.30
2022-12-29T19:59:22.259Z,72.30
2022-12-29T20:01:50.198Z,72.20
2022-12-29T20:04:19.425Z,72.10
2022-12-29T20:06:47.258Z,72.10
2022-12-29T20:09:15.092Z,72.10
2022-12-29T20:11:42.874Z,72.10
2022-12-29T20:14:10.723Z,72.10
2022-12-29T20:17:02.435Z,72.00
2022-12-29T20:19:27.781Z,71.90
2022-12-29T20:21:55.554Z,71.90
2022-12-29T20:24:23.484Z,71.90
2022-12-29T20:26:52.953Z,71.60
2022-12-29T20:29:20.824Z,71.60
2022-12-29T20:31:49.450Z,71.80
2022-12-29T20:34:18.365Z,71.70
2022-12-29T20:36:49.552Z,71.80
2022-12-29T20:39:20.090Z,71.90
2022-12-29T20:41:48.120Z,71.80
2022-12-29T20:44:16.076Z,71.60
2022-12-29T20:46:44.655Z,71.60
2022-12-29T20:49:12.928Z,71.50
2022-12-29T20:54:37.103Z,71.70
2022-12-29T20:57:06.814Z,71.70
2022-12-29T20:59:34.595Z,71.70
2022-12-29T21:02:02.551Z,71.60
2022-12-29T21:04:50.085Z,71.70
2022-12-29T21:07:20.409Z,71.60
2022-12-29T21:09:49.697Z,71.70
2022-12-29T21:12:17.539Z,71.90
2022-12-29T21:14:45.950Z,71.80
2022-12-29T21:17:13.990Z,72.10
2022-12-29T21:19:41.806Z,72.20
2022-12-29T21:22:09.634Z,72.10
2022-12-29T21:24:38.599Z,72.10
2022-12-29T21:27:07.844Z,72.30
2022-12-29T21:29:35.691Z,72.20
2022-12-29T21:32:06.638Z,72.30
2022-12-29T21:34:35.410Z,72.30
2022-12-29T21:37:03.410Z,72.20
2022-12-29T21:39:31.247Z,72.30
2022-12-29T21:42:00.035Z,72.20
2022-12-29T21:44:47.157Z,72.30
2022-12-29T21:47:15.010Z,72.20
2022-12-29T21:49:42.821Z,72.10
2022-12-29T21:52:10.815Z,71.90
2022-12-29T21:54:55.987Z,71.70
2022-12-29T21:57:46.638Z,71.60
2022-12-29T22:00:35.037Z,71.60
2022-12-29T22:03:23.400Z,71.50
2022-12-29T22:06:09.906Z,71.10
2022-12-29T22:08:55.875Z,71.20
2022-12-29T22:11:41.658Z,70.90
2022-12-29T22:14:09.509Z,70.80
2022-12-29T22:16:38.755Z,70.90
2022-12-29T22:19:07.825Z,71.20
2022-12-29T22:21:35.659Z,71.10
2022-12-29T22:24:03.505Z,71.10
2022-12-29T22:26:31.317Z,71.30
2022-12-29T22:28:59.327Z,71.50
2022-12-29T22:31:30.148Z,71.70
2022-12-29T22:34:01.761Z,71.90
2022-12-29T22:36:30.429Z,72.00
2022-12-29T22:38:58.280Z,71.80
2022-12-29T22:41:26.289Z,72.00
2022-12-29T22:43:54.050Z,72.00
2022-12-29T22:46:21.911Z,72.00
2022-12-29T22:48:49.792Z,71.90
2022-12-29T22:51:19.418Z,72.30
2022-12-29T22:53:50.137Z,72.30
2022-12-29T22:56:18.564Z,72.40
2022-12-29T22:58:48.200Z,72.50
2022-12-29T23:01:19.010Z,72.50
2022-12-29T23:03:47.164Z,72.60
2022-12-29T23:06:17.248Z,73.00
2022-12-29T23:08:47.396Z,73.10
2022-12-29T23:11:15.668Z,73.20
2022-12-29T23:13:44.924Z,72.90
2022-12-29T23:16:13.029Z,73.00
2022-12-29T23:18:40.953Z,72.70
2022-12-29T23:21:09.427Z,72.70
2022-12-29T23:23:56.150Z,72.70
2022-12-29T23:26:27.200Z,72.50
2022-12-29T23:28:59.934Z,72.50
2022-12-29T23:31:29.141Z,72.50
2022-12-29T23:33:57.272Z,72.50
2022-12-29T23:36:25.382Z,72.40
2022-12-29T23:38:53.191Z,72.50
2022-12-29T23:41:20.977Z,72.40
2022-12-29T23:43:50.135Z,72.40
2022-12-29T23:46:19.773Z,72.40
2022-12-29T23:48:47.913Z,72.30
2022-12-29T23:51:15.890Z,72.50
2022-12-29T23:53:45.545Z,72.80
2022-12-29T23:56:15.512Z,72.90
2022-12-29T23:58:43.450Z,72.90
